Aérodrome :
LOGIN :

S'inscrire | Disclaimer

   EN    FR    IT 

 










Légende :    VFR   VFR Marginal   IFR   IFR Intensif   IFR Très Intensif
Visi : 
Plafond : 
>= 8 km
>= 3000ft
5 à 8 km
1000 à 3000 ft
1500m à 5 km
500 à 1000 ft
800 à 1500m
200 à 500 ft
< 800m
< 200 ft
Symboles :   Orages  Brouillard  Fortes neiges  Fortes précipitations  Vent > 20 kt
SIGMETs :   Divers  Orages  Givrage  Turbulence  Onde Orograph.  Cendres Volcan.






- Altitude de l'aérodrome : 15 ft
- Code IATA : FCO


LIRF - Roma Leonardo da Vinci Fiumicino

DERNIER METAR :
  • 240550Z 10004KT 9999 BKN025 10/09 Q1023 NOSIG

METARs EXPIRÉS :
  • 240520Z 07004KT 9999 SCT020 BKN025 11/09 Q1023 NOSIG
  • 240450Z 10002KT 9999 BKN020 BKN025 10/10 Q1023 NOSIG
  • 240420Z 06003KT 9999 BKN025 11/10 Q1023 NOSIG
  • 240350Z VRB02KT 9999 BKN020 11/10 Q1024 NOSIG
  • 240320Z 01003KT 9999 BKN020 10/10 Q1024 NOSIG

TAF TAF LIRF
Valide du 24 à 06h jusqu'au 25 à 12h UTC


240500Z 2406/2512 VRB05KT 7000 SCT020 BKN050
BECMG 2409/2411 18010KT



MET'MAP, la Météo Aéronautique d'un coup d'oeil ! - Copyright ORBIFLY Décembre 2007 - Disclaimer

ORBIFLY MET'MAP TEAM :

Programmation & Développement : Alexandra Zaïnal
Sur une idée originale de : Baudouin d'Aumeries
Assistance à la programmation : Marc-Olivier Méhu
Soutien technique & logistique : Manuel Goepfert

Contact : metmap@orbifly.com




SOURCES & CREDITS :

   NOAA